sensor_id;sensor_type;location;lat;lon;timestamp;P1;durP1;ratioP1;P2;durP2;ratioP2
52124;SDS011;38119;52.710;6.398;2024-03-08T00:01:21;32.83;;;18.48;;
52124;SDS011;38119;52.710;6.398;2024-03-08T00:03:46;37.05;;;17.70;;
52124;SDS011;38119;52.710;6.398;2024-03-08T00:06:12;36.47;;;18.25;;
52124;SDS011;38119;52.710;6.398;2024-03-08T00:08:38;37.10;;;18.50;;
52124;SDS011;38119;52.710;6.398;2024-03-08T00:11:16;36.38;;;17.48;;
52124;SDS011;38119;52.710;6.398;2024-03-08T00:13:42;38.33;;;18.48;;
52124;SDS011;38119;52.710;6.398;2024-03-08T00:16:07;35.70;;;18.20;;
52124;SDS011;38119;52.710;6.398;2024-03-08T00:18:34;35.38;;;18.83;;
52124;SDS011;38119;52.710;6.398;2024-03-08T00:21:00;33.42;;;17.80;;
52124;SDS011;38119;52.710;6.398;2024-03-08T00:23:25;33.95;;;18.13;;
52124;SDS011;38119;52.710;6.398;2024-03-08T00:25:53;34.38;;;18.05;;
52124;SDS011;38119;52.710;6.398;2024-03-08T00:28:21;31.38;;;17.75;;
52124;SDS011;38119;52.710;6.398;2024-03-08T00:30:46;32.45;;;17.75;;
52124;SDS011;38119;52.710;6.398;2024-03-08T00:33:12;38.90;;;18.58;;
52124;SDS011;38119;52.710;6.398;2024-03-08T00:35:38;35.22;;;18.48;;
52124;SDS011;38119;52.710;6.398;2024-03-08T00:38:04;36.00;;;17.80;;
52124;SDS011;38119;52.710;6.398;2024-03-08T00:40:30;34.88;;;18.85;;
52124;SDS011;38119;52.710;6.398;2024-03-08T00:42:55;32.05;;;17.83;;
52124;SDS011;38119;52.710;6.398;2024-03-08T00:45:21;35.88;;;18.70;;
52124;SDS011;38119;52.710;6.398;2024-03-08T00:47:48;34.60;;;17.15;;
52124;SDS011;38119;52.710;6.398;2024-03-08T00:50:17;37.63;;;19.00;;
52124;SDS011;38119;52.710;6.398;2024-03-08T00:52:43;32.05;;;17.45;;
52124;SDS011;38119;52.710;6.398;2024-03-08T00:55:09;34.00;;;18.40;;
52124;SDS011;38119;52.710;6.398;2024-03-08T00:57:36;37.70;;;18.05;;
52124;SDS011;38119;52.710;6.398;2024-03-08T01:00:06;31.88;;;17.15;;
52124;SDS011;38119;52.710;6.398;2024-03-08T01:02:35;35.22;;;17.73;;
52124;SDS011;38119;52.710;6.398;2024-03-08T01:05:01;32.42;;;18.45;;
52124;SDS011;38119;52.710;6.398;2024-03-08T01:07:33;33.00;;;17.15;;
52124;SDS011;38119;52.710;6.398;2024-03-08T01:10:00;31.33;;;17.58;;
52124;SDS011;38119;52.710;6.398;2024-03-08T01:12:29;35.47;;;17.95;;
52124;SDS011;38119;52.710;6.398;2024-03-08T01:14:55;35.47;;;17.50;;
52124;SDS011;38119;52.710;6.398;2024-03-08T01:17:22;32.60;;;18.27;;
52124;SDS011;38119;52.710;6.398;2024-03-08T01:19:49;34.03;;;18.17;;
52124;SDS011;38119;52.710;6.398;2024-03-08T01:22:14;35.28;;;18.10;;
52124;SDS011;38119;52.710;6.398;2024-03-08T01:24:40;34.05;;;18.50;;
52124;SDS011;38119;52.710;6.398;2024-03-08T01:27:05;35.15;;;17.83;;
52124;SDS011;38119;52.710;6.398;2024-03-08T01:29:32;38.58;;;18.73;;
52124;SDS011;38119;52.710;6.398;2024-03-08T01:31:58;34.78;;;18.50;;
52124;SDS011;38119;52.710;6.398;2024-03-08T01:34:26;35.67;;;18.52;;
52124;SDS011;38119;52.710;6.398;2024-03-08T01:36:53;32.42;;;17.98;;
52124;SDS011;38119;52.710;6.398;2024-03-08T01:39:21;36.13;;;18.88;;
52124;SDS011;38119;52.710;6.398;2024-03-08T01:41:48;33.47;;;18.42;;
52124;SDS011;38119;52.710;6.398;2024-03-08T01:44:15;35.92;;;18.98;;
52124;SDS011;38119;52.710;6.398;2024-03-08T01:46:45;35.65;;;17.67;;
52124;SDS011;38119;52.710;6.398;2024-03-08T01:49:13;36.67;;;18.77;;
52124;SDS011;38119;52.710;6.398;2024-03-08T01:51:40;37.65;;;18.45;;
52124;SDS011;38119;52.710;6.398;2024-03-08T01:54:06;34.28;;;18.80;;
52124;SDS011;38119;52.710;6.398;2024-03-08T01:56:35;34.33;;;18.30;;
52124;SDS011;38119;52.710;6.398;2024-03-08T01:59:02;36.08;;;18.05;;
52124;SDS011;38119;52.710;6.398;2024-03-08T02:01:29;32.65;;;18.02;;
52124;SDS011;38119;52.710;6.398;2024-03-08T02:03:55;31.90;;;18.17;;
52124;SDS011;38119;52.710;6.398;2024-03-08T02:06:22;37.55;;;19.30;;
52124;SDS011;38119;52.710;6.398;2024-03-08T02:08:50;36.38;;;19.33;;
52124;SDS011;38119;52.710;6.398;2024-03-08T02:11:16;35.70;;;19.30;;
52124;SDS011;38119;52.710;6.398;2024-03-08T02:13:44;36.63;;;19.00;;
52124;SDS011;38119;52.710;6.398;2024-03-08T02:16:09;30.77;;;18.15;;
52124;SDS011;38119;52.710;6.398;2024-03-08T02:18:36;35.53;;;19.20;;
52124;SDS011;38119;52.710;6.398;2024-03-08T02:21:06;36.15;;;19.67;;
52124;SDS011;38119;52.710;6.398;2024-03-08T02:23:33;36.30;;;18.85;;
52124;SDS011;38119;52.710;6.398;2024-03-08T02:25:59;38.67;;;19.58;;
52124;SDS011;38119;52.710;6.398;2024-03-08T02:28:28;38.67;;;20.00;;
52124;SDS011;38119;52.710;6.398;2024-03-08T02:30:54;38.17;;;18.90;;
52124;SDS011;38119;52.710;6.398;2024-03-08T02:33:22;34.75;;;18.42;;
52124;SDS011;38119;52.710;6.398;2024-03-08T02:35:49;34.08;;;18.75;;
52124;SDS011;38119;52.710;6.398;2024-03-08T02:38:19;33.55;;;19.35;;
52124;SDS011;38119;52.710;6.398;2024-03-08T02:40:46;36.03;;;18.95;;
52124;SDS011;38119;52.710;6.398;2024-03-08T02:43:14;32.95;;;18.20;;
52124;SDS011;38119;52.710;6.398;2024-03-08T02:45:43;36.75;;;19.80;;
52124;SDS011;38119;52.710;6.398;2024-03-08T02:48:10;37.92;;;19.77;;
52124;SDS011;38119;52.710;6.398;2024-03-08T02:50:36;35.53;;;19.23;;
52124;SDS011;38119;52.710;6.398;2024-03-08T02:53:05;36.40;;;19.05;;
52124;SDS011;38119;52.710;6.398;2024-03-08T02:55:31;36.33;;;19.00;;
52124;SDS011;38119;52.710;6.398;2024-03-08T02:57:58;35.13;;;19.35;;
52124;SDS011;38119;52.710;6.398;2024-03-08T03:00:24;35.78;;;19.00;;
52124;SDS011;38119;52.710;6.398;2024-03-08T03:02:50;36.55;;;18.60;;
52124;SDS011;38119;52.710;6.398;2024-03-08T03:05:26;36.20;;;18.27;;
52124;SDS011;38119;52.710;6.398;2024-03-08T03:07:52;36.25;;;19.40;;
52124;SDS011;38119;52.710;6.398;2024-03-08T03:10:18;38.28;;;19.60;;
52124;SDS011;38119;52.710;6.398;2024-03-08T03:12:46;35.22;;;19.25;;
52124;SDS011;38119;52.710;6.398;2024-03-08T03:15:13;40.17;;;19.50;;
52124;SDS011;38119;52.710;6.398;2024-03-08T03:17:39;38.60;;;19.92;;
52124;SDS011;38119;52.710;6.398;2024-03-08T03:20:06;34.28;;;19.23;;
52124;SDS011;38119;52.710;6.398;2024-03-08T03:22:38;37.63;;;20.08;;
52124;SDS011;38119;52.710;6.398;2024-03-08T03:25:04;33.67;;;19.10;;
52124;SDS011;38119;52.710;6.398;2024-03-08T03:27:33;39.67;;;20.15;;
52124;SDS011;38119;52.710;6.398;2024-03-08T03:29:59;39.40;;;20.08;;
52124;SDS011;38119;52.710;6.398;2024-03-08T03:32:44;38.10;;;19.38;;
52124;SDS011;38119;52.710;6.398;2024-03-08T03:35:12;35.35;;;19.33;;
52124;SDS011;38119;52.710;6.398;2024-03-08T03:37:42;34.97;;;19.15;;
52124;SDS011;38119;52.710;6.398;2024-03-08T03:40:11;37.63;;;19.50;;
52124;SDS011;38119;52.710;6.398;2024-03-08T03:42:40;38.78;;;19.05;;
52124;SDS011;38119;52.710;6.398;2024-03-08T03:45:06;36.40;;;20.45;;
52124;SDS011;38119;52.710;6.398;2024-03-08T03:47:32;39.22;;;20.08;;
52124;SDS011;38119;52.710;6.398;2024-03-08T03:49:57;40.00;;;20.02;;
52124;SDS011;38119;52.710;6.398;2024-03-08T03:52:27;37.47;;;20.70;;
52124;SDS011;38119;52.710;6.398;2024-03-08T03:54:52;35.25;;;19.27;;
52124;SDS011;38119;52.710;6.398;2024-03-08T03:57:18;33.85;;;18.75;;
52124;SDS011;38119;52.710;6.398;2024-03-08T03:59:48;34.20;;;19.02;;
52124;SDS011;38119;52.710;6.398;2024-03-08T04:02:14;37.25;;;19.98;;
52124;SDS011;38119;52.710;6.398;2024-03-08T04:04:39;43.55;;;19.88;;
52124;SDS011;38119;52.710;6.398;2024-03-08T04:07:05;35.17;;;18.92;;
52124;SDS011;38119;52.710;6.398;2024-03-08T04:09:35;34.90;;;18.95;;
52124;SDS011;38119;52.710;6.398;2024-03-08T04:12:01;41.58;;;19.42;;
52124;SDS011;38119;52.710;6.398;2024-03-08T04:14:26;36.85;;;20.77;;
52124;SDS011;38119;52.710;6.398;2024-03-08T04:16:52;34.22;;;19.05;;
52124;SDS011;38119;52.710;6.398;2024-03-08T04:19:18;35.80;;;20.15;;
52124;SDS011;38119;52.710;6.398;2024-03-08T04:21:44;41.10;;;19.92;;
52124;SDS011;38119;52.710;6.398;2024-03-08T04:24:13;38.83;;;19.88;;
52124;SDS011;38119;52.710;6.398;2024-03-08T04:26:39;35.45;;;20.15;;
52124;SDS011;38119;52.710;6.398;2024-03-08T04:29:09;36.15;;;20.58;;
52124;SDS011;38119;52.710;6.398;2024-03-08T04:31:34;32.55;;;18.88;;
52124;SDS011;38119;52.710;6.398;2024-03-08T04:34:00;37.30;;;20.45;;
52124;SDS011;38119;52.710;6.398;2024-03-08T04:36:26;41.53;;;20.55;;
52124;SDS011;38119;52.710;6.398;2024-03-08T04:38:51;36.33;;;20.13;;
52124;SDS011;38119;52.710;6.398;2024-03-08T04:41:17;38.22;;;19.50;;
52124;SDS011;38119;52.710;6.398;2024-03-08T04:43:46;34.95;;;20.02;;
52124;SDS011;38119;52.710;6.398;2024-03-08T04:46:12;41.75;;;20.77;;
52124;SDS011;38119;52.710;6.398;2024-03-08T04:48:39;37.15;;;19.45;;
52124;SDS011;38119;52.710;6.398;2024-03-08T04:51:06;39.47;;;21.00;;
52124;SDS011;38119;52.710;6.398;2024-03-08T04:53:32;38.22;;;20.65;;
52124;SDS011;38119;52.710;6.398;2024-03-08T04:55:59;38.72;;;19.88;;
52124;SDS011;38119;52.710;6.398;2024-03-08T04:58:25;36.45;;;20.40;;
52124;SDS011;38119;52.710;6.398;2024-03-08T05:01:00;40.70;;;20.80;;
52124;SDS011;38119;52.710;6.398;2024-03-08T05:03:27;38.15;;;19.55;;
52124;SDS011;38119;52.710;6.398;2024-03-08T05:05:55;38.72;;;20.45;;
52124;SDS011;38119;52.710;6.398;2024-03-08T05:08:25;41.95;;;20.17;;
52124;SDS011;38119;52.710;6.398;2024-03-08T05:10:56;36.50;;;20.40;;
52124;SDS011;38119;52.710;6.398;2024-03-08T05:13:25;33.28;;;19.33;;
52124;SDS011;38119;52.710;6.398;2024-03-08T05:15:52;34.72;;;20.02;;
52124;SDS011;38119;52.710;6.398;2024-03-08T05:18:17;37.42;;;19.73;;
52124;SDS011;38119;52.710;6.398;2024-03-08T05:20:43;39.13;;;21.67;;
52124;SDS011;38119;52.710;6.398;2024-03-08T05:23:09;37.05;;;20.17;;
52124;SDS011;38119;52.710;6.398;2024-03-08T05:25:34;36.70;;;19.85;;
52124;SDS011;38119;52.710;6.398;2024-03-08T05:28:01;35.78;;;20.60;;
52124;SDS011;38119;52.710;6.398;2024-03-08T05:30:26;43.65;;;21.75;;
52124;SDS011;38119;52.710;6.398;2024-03-08T05:32:52;36.67;;;20.95;;
52124;SDS011;38119;52.710;6.398;2024-03-08T05:35:18;37.80;;;20.27;;
52124;SDS011;38119;52.710;6.398;2024-03-08T05:37:43;35.95;;;20.50;;
52124;SDS011;38119;52.710;6.398;2024-03-08T05:40:09;36.67;;;20.08;;
52124;SDS011;38119;52.710;6.398;2024-03-08T05:42:35;35.97;;;19.90;;
52124;SDS011;38119;52.710;6.398;2024-03-08T05:45:02;38.25;;;20.42;;
52124;SDS011;38119;52.710;6.398;2024-03-08T05:47:28;40.58;;;21.58;;
52124;SDS011;38119;52.710;6.398;2024-03-08T05:49:54;37.80;;;20.40;;
52124;SDS011;38119;52.710;6.398;2024-03-08T05:52:20;40.05;;;20.35;;
52124;SDS011;38119;52.710;6.398;2024-03-08T05:54:46;40.65;;;21.05;;
52124;SDS011;38119;52.710;6.398;2024-03-08T05:57:13;39.33;;;21.90;;
52124;SDS011;38119;52.710;6.398;2024-03-08T05:59:39;41.78;;;22.20;;
52124;SDS011;38119;52.710;6.398;2024-03-08T06:02:05;39.35;;;21.25;;
52124;SDS011;38119;52.710;6.398;2024-03-08T06:04:31;41.22;;;21.27;;
52124;SDS011;38119;52.710;6.398;2024-03-08T06:06:56;40.88;;;22.52;;
52124;SDS011;38119;52.710;6.398;2024-03-08T06:09:23;40.88;;;21.65;;
52124;SDS011;38119;52.710;6.398;2024-03-08T06:11:52;40.50;;;21.70;;
52124;SDS011;38119;52.710;6.398;2024-03-08T06:14:19;39.47;;;22.30;;
52124;SDS011;38119;52.710;6.398;2024-03-08T06:16:45;40.40;;;21.52;;
52124;SDS011;38119;52.710;6.398;2024-03-08T06:19:12;37.75;;;21.27;;
52124;SDS011;38119;52.710;6.398;2024-03-08T06:21:38;43.50;;;22.85;;
52124;SDS011;38119;52.710;6.398;2024-03-08T06:24:07;40.53;;;20.58;;
52124;SDS011;38119;52.710;6.398;2024-03-08T06:26:32;39.63;;;20.92;;
52124;SDS011;38119;52.710;6.398;2024-03-08T06:28:59;38.85;;;21.17;;
52124;SDS011;38119;52.710;6.398;2024-03-08T06:31:25;39.45;;;21.33;;
52124;SDS011;38119;52.710;6.398;2024-03-08T06:33:51;40.40;;;20.60;;
52124;SDS011;38119;52.710;6.398;2024-03-08T06:36:19;39.28;;;21.15;;
52124;SDS011;38119;52.710;6.398;2024-03-08T06:38:48;39.63;;;21.33;;
52124;SDS011;38119;52.710;6.398;2024-03-08T06:41:14;37.38;;;21.02;;
52124;SDS011;38119;52.710;6.398;2024-03-08T06:43:45;40.05;;;21.42;;
52124;SDS011;38119;52.710;6.398;2024-03-08T06:46:11;39.95;;;21.70;;
52124;SDS011;38119;52.710;6.398;2024-03-08T06:48:41;40.35;;;20.60;;
52124;SDS011;38119;52.710;6.398;2024-03-08T06:51:06;40.33;;;21.08;;
52124;SDS011;38119;52.710;6.398;2024-03-08T06:53:33;40.25;;;20.77;;
52124;SDS011;38119;52.710;6.398;2024-03-08T06:56:02;38.03;;;20.90;;
52124;SDS011;38119;52.710;6.398;2024-03-08T06:58:28;40.60;;;20.15;;
52124;SDS011;38119;52.710;6.398;2024-03-08T07:01:00;38.22;;;20.67;;
52124;SDS011;38119;52.710;6.398;2024-03-08T07:03:29;38.13;;;21.13;;
52124;SDS011;38119;52.710;6.398;2024-03-08T07:05:55;41.20;;;21.45;;
52124;SDS011;38119;52.710;6.398;2024-03-08T07:08:23;38.92;;;20.83;;
52124;SDS011;38119;52.710;6.398;2024-03-08T07:10:54;38.50;;;20.42;;
52124;SDS011;38119;52.710;6.398;2024-03-08T07:13:23;41.67;;;21.85;;
52124;SDS011;38119;52.710;6.398;2024-03-08T07:15:50;41.70;;;21.17;;
52124;SDS011;38119;52.710;6.398;2024-03-08T07:18:17;40.38;;;21.98;;
52124;SDS011;38119;52.710;6.398;2024-03-08T07:20:42;43.55;;;22.23;;
52124;SDS011;38119;52.710;6.398;2024-03-08T07:23:08;34.67;;;20.65;;
52124;SDS011;38119;52.710;6.398;2024-03-08T07:25:35;40.20;;;21.20;;
52124;SDS011;38119;52.710;6.398;2024-03-08T07:28:05;39.47;;;21.30;;
52124;SDS011;38119;52.710;6.398;2024-03-08T07:30:31;37.75;;;20.77;;
52124;SDS011;38119;52.710;6.398;2024-03-08T07:33:09;40.25;;;21.42;;
52124;SDS011;38119;52.710;6.398;2024-03-08T07:35:38;40.55;;;22.55;;
52124;SDS011;38119;52.710;6.398;2024-03-08T07:38:04;41.10;;;22.40;;
52124;SDS011;38119;52.710;6.398;2024-03-08T07:40:31;42.10;;;22.25;;
52124;SDS011;38119;52.710;6.398;2024-03-08T07:43:00;38.95;;;21.70;;
52124;SDS011;38119;52.710;6.398;2024-03-08T07:45:25;43.17;;;22.02;;
52124;SDS011;38119;52.710;6.398;2024-03-08T07:47:51;37.05;;;20.92;;
52124;SDS011;38119;52.710;6.398;2024-03-08T07:50:18;41.05;;;21.35;;
52124;SDS011;38119;52.710;6.398;2024-03-08T07:52:44;39.05;;;21.73;;
52124;SDS011;38119;52.710;6.398;2024-03-08T07:55:10;40.83;;;21.25;;
52124;SDS011;38119;52.710;6.398;2024-03-08T07:57:35;37.42;;;20.85;;
52124;SDS011;38119;52.710;6.398;2024-03-08T08:00:07;40.30;;;22.20;;
52124;SDS011;38119;52.710;6.398;2024-03-08T08:02:35;40.85;;;22.52;;
52124;SDS011;38119;52.710;6.398;2024-03-08T08:05:02;40.85;;;21.50;;
52124;SDS011;38119;52.710;6.398;2024-03-08T08:07:29;41.85;;;23.83;;
52124;SDS011;38119;52.710;6.398;2024-03-08T08:09:55;41.17;;;22.45;;
52124;SDS011;38119;52.710;6.398;2024-03-08T08:12:21;43.92;;;22.52;;
52124;SDS011;38119;52.710;6.398;2024-03-08T08:14:47;43.47;;;23.58;;
52124;SDS011;38119;52.710;6.398;2024-03-08T08:17:12;37.70;;;20.83;;
52124;SDS011;38119;52.710;6.398;2024-03-08T08:19:40;43.50;;;22.15;;
52124;SDS011;38119;52.710;6.398;2024-03-08T08:22:06;39.88;;;21.55;;
52124;SDS011;38119;52.710;6.398;2024-03-08T08:24:34;41.03;;;21.65;;
52124;SDS011;38119;52.710;6.398;2024-03-08T08:27:01;43.05;;;22.98;;
52124;SDS011;38119;52.710;6.398;2024-03-08T08:29:28;39.42;;;21.67;;
52124;SDS011;38119;52.710;6.398;2024-03-08T08:31:54;42.42;;;22.42;;
52124;SDS011;38119;52.710;6.398;2024-03-08T08:34:21;44.40;;;22.38;;
52124;SDS011;38119;52.710;6.398;2024-03-08T08:36:49;37.90;;;21.77;;
52124;SDS011;38119;52.710;6.398;2024-03-08T08:39:14;41.90;;;22.13;;
52124;SDS011;38119;52.710;6.398;2024-03-08T08:41:42;39.10;;;21.98;;
52124;SDS011;38119;52.710;6.398;2024-03-08T08:44:08;41.10;;;23.10;;
52124;SDS011;38119;52.710;6.398;2024-03-08T08:46:35;39.28;;;22.40;;
52124;SDS011;38119;52.710;6.398;2024-03-08T08:49:03;41.03;;;21.35;;
52124;SDS011;38119;52.710;6.398;2024-03-08T08:51:30;42.55;;;23.60;;
52124;SDS011;38119;52.710;6.398;2024-03-08T08:53:58;41.58;;;22.38;;
52124;SDS011;38119;52.710;6.398;2024-03-08T08:56:24;41.55;;;23.05;;
52124;SDS011;38119;52.710;6.398;2024-03-08T08:58:51;41.58;;;23.05;;
52124;SDS011;38119;52.710;6.398;2024-03-08T09:01:20;41.97;;;23.23;;
52124;SDS011;38119;52.710;6.398;2024-03-08T09:03:45;39.95;;;22.17;;
52124;SDS011;38119;52.710;6.398;2024-03-08T09:06:11;41.28;;;23.35;;
52124;SDS011;38119;52.710;6.398;2024-03-08T09:08:41;42.30;;;22.05;;
52124;SDS011;38119;52.710;6.398;2024-03-08T09:11:09;43.90;;;23.73;;
52124;SDS011;38119;52.710;6.398;2024-03-08T09:13:35;41.20;;;22.75;;
52124;SDS011;38119;52.710;6.398;2024-03-08T09:16:02;45.65;;;24.08;;
52124;SDS011;38119;52.710;6.398;2024-03-08T09:18:30;43.30;;;23.50;;
52124;SDS011;38119;52.710;6.398;2024-03-08T09:20:57;42.95;;;23.58;;
52124;SDS011;38119;52.710;6.398;2024-03-08T09:23:24;47.30;;;24.52;;
52124;SDS011;38119;52.710;6.398;2024-03-08T09:25:55;43.10;;;24.02;;
52124;SDS011;38119;52.710;6.398;2024-03-08T09:28:23;45.50;;;23.65;;
52124;SDS011;38119;52.710;6.398;2024-03-08T09:30:50;42.95;;;23.08;;
52124;SDS011;38119;52.710;6.398;2024-03-08T09:33:16;43.00;;;23.80;;
52124;SDS011;38119;52.710;6.398;2024-03-08T09:35:45;44.20;;;23.90;;
52124;SDS011;38119;52.710;6.398;2024-03-08T09:38:13;44.47;;;23.80;;
52124;SDS011;38119;52.710;6.398;2024-03-08T09:40:43;41.58;;;22.65;;
52124;SDS011;38119;52.710;6.398;2024-03-08T09:43:09;43.03;;;24.98;;
52124;SDS011;38119;52.710;6.398;2024-03-08T09:45:38;43.53;;;23.98;;
52124;SDS011;38119;52.710;6.398;2024-03-08T09:48:10;43.65;;;24.40;;
52124;SDS011;38119;52.710;6.398;2024-03-08T09:50:52;43.13;;;24.35;;
52124;SDS011;38119;52.710;6.398;2024-03-08T09:53:20;40.33;;;23.92;;
52124;SDS011;38119;52.710;6.398;2024-03-08T09:55:47;44.08;;;24.67;;
52124;SDS011;38119;52.710;6.398;2024-03-08T09:58:15;42.97;;;25.15;;
52124;SDS011;38119;52.710;6.398;2024-03-08T10:00:42;46.42;;;25.88;;
52124;SDS011;38119;52.710;6.398;2024-03-08T10:03:08;42.85;;;23.20;;
52124;SDS011;38119;52.710;6.398;2024-03-08T10:05:35;42.67;;;23.95;;
52124;SDS011;38119;52.710;6.398;2024-03-08T10:08:01;43.08;;;24.05;;
52124;SDS011;38119;52.710;6.398;2024-03-08T10:10:27;44.92;;;25.27;;
52124;SDS011;38119;52.710;6.398;2024-03-08T10:12:53;45.15;;;24.27;;
52124;SDS011;38119;52.710;6.398;2024-03-08T10:15:20;45.13;;;24.55;;
52124;SDS011;38119;52.710;6.398;2024-03-08T10:17:46;45.75;;;23.80;;
52124;SDS011;38119;52.710;6.398;2024-03-08T10:20:15;45.22;;;24.90;;
52124;SDS011;38119;52.710;6.398;2024-03-08T10:22:47;45.47;;;24.65;;
52124;SDS011;38119;52.710;6.398;2024-03-08T10:25:13;43.97;;;23.60;;
52124;SDS011;38119;52.710;6.398;2024-03-08T10:27:39;43.75;;;24.25;;
52124;SDS011;38119;52.710;6.398;2024-03-08T10:30:07;39.70;;;24.55;;
52124;SDS011;38119;52.710;6.398;2024-03-08T10:32:38;38.92;;;24.27;;
52124;SDS011;38119;52.710;6.398;2024-03-08T10:35:04;39.45;;;24.50;;
52124;SDS011;38119;52.710;6.398;2024-03-08T10:37:30;43.67;;;25.25;;
52124;SDS011;38119;52.710;6.398;2024-03-08T10:40:04;42.15;;;24.67;;
52124;SDS011;38119;52.710;6.398;2024-03-08T10:42:47;38.35;;;24.08;;
52124;SDS011;38119;52.710;6.398;2024-03-08T10:47:51;40.08;;;24.80;;
52124;SDS011;38119;52.710;6.398;2024-03-08T10:50:37;43.53;;;24.63;;
52124;SDS011;38119;52.710;6.398;2024-03-08T10:53:05;42.40;;;25.98;;
52124;SDS011;38119;52.710;6.398;2024-03-08T10:55:35;37.50;;;23.83;;
52124;SDS011;38119;52.710;6.398;2024-03-08T10:58:05;41.00;;;25.23;;
52124;SDS011;38119;52.710;6.398;2024-03-08T11:00:36;38.50;;;24.70;;
52124;SDS011;38119;52.710;6.398;2024-03-08T11:03:03;39.88;;;25.02;;
52124;SDS011;38119;52.710;6.398;2024-03-08T11:05:36;44.00;;;26.42;;
52124;SDS011;38119;52.710;6.398;2024-03-08T11:08:25;37.58;;;25.15;;
52124;SDS011;38119;52.710;6.398;2024-03-08T11:13:32;38.40;;;24.70;;
52124;SDS011;38119;52.710;6.398;2024-03-08T11:16:10;35.45;;;23.95;;
52124;SDS011;38119;52.710;6.398;2024-03-08T11:18:41;39.08;;;23.70;;
52124;SDS011;38119;52.710;6.398;2024-03-08T11:21:09;34.97;;;23.17;;
52124;SDS011;38119;52.710;6.398;2024-03-08T11:23:39;33.65;;;23.17;;
52124;SDS011;38119;52.710;6.398;2024-03-08T11:26:20;39.20;;;24.33;;
52124;SDS011;38119;52.710;6.398;2024-03-08T11:28:48;33.55;;;23.25;;
52124;SDS011;38119;52.710;6.398;2024-03-08T11:31:29;35.08;;;24.25;;
52124;SDS011;38119;52.710;6.398;2024-03-08T11:33:55;35.28;;;23.42;;
52124;SDS011;38119;52.710;6.398;2024-03-08T11:36:22;34.85;;;23.27;;
52124;SDS011;38119;52.710;6.398;2024-03-08T11:38:49;34.80;;;24.48;;
52124;SDS011;38119;52.710;6.398;2024-03-08T11:41:21;35.92;;;24.80;;
52124;SDS011;38119;52.710;6.398;2024-03-08T11:43:49;35.47;;;24.17;;
52124;SDS011;38119;52.710;6.398;2024-03-08T11:46:30;36.50;;;24.53;;
52124;SDS011;38119;52.710;6.398;2024-03-08T11:48:57;33.35;;;24.25;;
52124;SDS011;38119;52.710;6.398;2024-03-08T11:51:26;31.42;;;22.55;;
52124;SDS011;38119;52.710;6.398;2024-03-08T11:53:55;31.85;;;22.80;;
52124;SDS011;38119;52.710;6.398;2024-03-08T11:56:21;32.42;;;22.92;;
52124;SDS011;38119;52.710;6.398;2024-03-08T11:58:54;34.55;;;23.17;;
52124;SDS011;38119;52.710;6.398;2024-03-08T12:01:23;32.85;;;22.27;;
52124;SDS011;38119;52.710;6.398;2024-03-08T12:03:55;33.38;;;22.67;;
52124;SDS011;38119;52.710;6.398;2024-03-08T12:06:24;33.78;;;22.30;;
52124;SDS011;38119;52.710;6.398;2024-03-08T12:08:51;36.40;;;23.50;;
52124;SDS011;38119;52.710;6.398;2024-03-08T12:11:21;33.85;;;22.38;;
52124;SDS011;38119;52.710;6.398;2024-03-08T12:13:50;33.30;;;22.50;;
52124;SDS011;38119;52.710;6.398;2024-03-08T12:16:23;32.58;;;22.38;;
52124;SDS011;38119;52.710;6.398;2024-03-08T12:18:50;30.65;;;21.98;;
52124;SDS011;38119;52.710;6.398;2024-03-08T12:21:17;31.98;;;22.65;;
52124;SDS011;38119;52.710;6.398;2024-03-08T12:23:45;34.28;;;24.48;;
52124;SDS011;38119;52.710;6.398;2024-03-08T12:26:16;34.08;;;23.77;;
52124;SDS011;38119;52.710;6.398;2024-03-08T12:28:43;32.63;;;24.20;;
52124;SDS011;38119;52.710;6.398;2024-03-08T12:31:11;29.88;;;22.63;;
52124;SDS011;38119;52.710;6.398;2024-03-08T12:33:47;36.13;;;22.65;;
52124;SDS011;38119;52.710;6.398;2024-03-08T12:36:19;31.98;;;22.13;;
52124;SDS011;38119;52.710;6.398;2024-03-08T12:38:46;35.38;;;22.02;;
52124;SDS011;38119;52.710;6.398;2024-03-08T12:41:15;30.23;;;21.45;;
52124;SDS011;38119;52.710;6.398;2024-03-08T12:43:47;31.67;;;21.98;;
52124;SDS011;38119;52.710;6.398;2024-03-08T12:46:20;30.25;;;21.23;;
52124;SDS011;38119;52.710;6.398;2024-03-08T12:48:47;30.77;;;21.98;;
52124;SDS011;38119;52.710;6.398;2024-03-08T12:51:13;31.13;;;21.50;;
52124;SDS011;38119;52.710;6.398;2024-03-08T12:53:43;32.22;;;21.95;;
52124;SDS011;38119;52.710;6.398;2024-03-08T12:56:12;31.42;;;20.20;;
52124;SDS011;38119;52.710;6.398;2024-03-08T12:58:42;29.73;;;21.08;;
52124;SDS011;38119;52.710;6.398;2024-03-08T13:01:09;28.75;;;20.52;;
52124;SDS011;38119;52.710;6.398;2024-03-08T13:03:38;28.33;;;20.25;;
52124;SDS011;38119;52.710;6.398;2024-03-08T13:06:05;29.92;;;21.75;;
52124;SDS011;38119;52.710;6.398;2024-03-08T13:08:36;28.63;;;21.17;;
52124;SDS011;38119;52.710;6.398;2024-03-08T13:11:06;28.60;;;21.40;;
52124;SDS011;38119;52.710;6.398;2024-03-08T13:13:33;29.05;;;20.52;;
52124;SDS011;38119;52.710;6.398;2024-03-08T13:16:05;27.35;;;19.75;;
52124;SDS011;38119;52.710;6.398;2024-03-08T13:18:36;26.00;;;19.20;;
52124;SDS011;38119;52.710;6.398;2024-03-08T13:21:02;27.35;;;18.98;;
52124;SDS011;38119;52.710;6.398;2024-03-08T13:23:37;27.45;;;19.65;;
52124;SDS011;38119;52.710;6.398;2024-03-08T13:26:11;26.80;;;17.67;;
52124;SDS011;38119;52.710;6.398;2024-03-08T13:28:50;28.42;;;19.33;;
52124;SDS011;38119;52.710;6.398;2024-03-08T13:31:21;26.40;;;18.95;;
52124;SDS011;38119;52.710;6.398;2024-03-08T13:33:47;28.80;;;19.17;;
52124;SDS011;38119;52.710;6.398;2024-03-08T13:36:13;31.60;;;20.52;;
52124;SDS011;38119;52.710;6.398;2024-03-08T13:38:49;28.52;;;19.05;;
52124;SDS011;38119;52.710;6.398;2024-03-08T13:41:15;26.70;;;19.55;;
52124;SDS011;38119;52.710;6.398;2024-03-08T13:43:42;30.23;;;20.05;;
52124;SDS011;38119;52.710;6.398;2024-03-08T13:46:10;30.63;;;20.40;;
52124;SDS011;38119;52.710;6.398;2024-03-08T13:48:36;30.70;;;20.60;;
52124;SDS011;38119;52.710;6.398;2024-03-08T13:51:06;25.40;;;18.50;;
52124;SDS011;38119;52.710;6.398;2024-03-08T13:53:33;26.63;;;20.25;;
52124;SDS011;38119;52.710;6.398;2024-03-08T13:56:00;29.08;;;20.33;;
52124;SDS011;38119;52.710;6.398;2024-03-08T13:58:27;28.90;;;20.38;;
52124;SDS011;38119;52.710;6.398;2024-03-08T14:00:53;28.83;;;20.45;;
52124;SDS011;38119;52.710;6.398;2024-03-08T14:03:18;30.67;;;21.42;;
52124;SDS011;38119;52.710;6.398;2024-03-08T14:05:46;30.13;;;21.58;;
52124;SDS011;38119;52.710;6.398;2024-03-08T14:08:18;29.55;;;20.33;;
52124;SDS011;38119;52.710;6.398;2024-03-08T14:10:43;28.25;;;20.42;;
52124;SDS011;38119;52.710;6.398;2024-03-08T14:13:12;32.72;;;21.48;;
52124;SDS011;38119;52.710;6.398;2024-03-08T14:15:40;30.00;;;20.13;;
52124;SDS011;38119;52.710;6.398;2024-03-08T14:18:10;31.90;;;21.17;;
52124;SDS011;38119;52.710;6.398;2024-03-08T14:20:38;29.75;;;21.48;;
52124;SDS011;38119;52.710;6.398;2024-03-08T14:23:03;29.70;;;20.48;;
52124;SDS011;38119;52.710;6.398;2024-03-08T14:25:31;28.90;;;21.40;;
52124;SDS011;38119;52.710;6.398;2024-03-08T14:28:00;30.38;;;21.02;;
52124;SDS011;38119;52.710;6.398;2024-03-08T14:30:32;28.25;;;20.20;;